sensor_id;sensor_type;location;lat;lon;timestamp;pressure;altitude;pressure_sealevel;temperature;humidity
64023;BME280;50264;52.088;5.296;2023-05-10T00:00:15;100786.0;;;13.61;100.0
64023;BME280;50264;52.088;5.296;2023-05-10T00:01:51;100783.0;;;13.59;100.0
64023;BME280;50264;52.088;5.296;2023-05-10T00:03:27;100784.0;;;13.57;100.0
64023;BME280;50264;52.088;5.296;2023-05-10T00:06:40;100783.0;;;13.56;100.0
64023;BME280;50264;52.088;5.296;2023-05-10T00:08:17;100783.0;;;13.5;100.0
64023;BME280;50264;52.088;5.296;2023-05-10T00:09:53;100778.0;;;13.46;100.0
64023;BME280;50264;52.088;5.296;2023-05-10T00:11:29;100776.0;;;13.58;100.0
64023;BME280;50264;52.088;5.296;2023-05-10T00:14:41;100776.0;;;13.6;100.0
64023;BME280;50264;52.088;5.296;2023-05-10T00:16:17;100773.0;;;13.6;100.0
64023;BME280;50264;52.088;5.296;2023-05-10T00:17:53;100773.0;;;13.63;100.0
64023;BME280;50264;52.088;5.296;2023-05-10T00:21:06;100773.0;;;13.66;100.0
64023;BME280;50264;52.088;5.296;2023-05-10T00:22:42;100775.0;;;13.57;100.0
64023;BME280;50264;52.088;5.296;2023-05-10T00:24:18;100776.0;;;13.55;100.0
64023;BME280;50264;52.088;5.296;2023-05-10T00:27:30;100775.0;;;13.55;100.0
64023;BME280;50264;52.088;5.296;2023-05-10T00:29:06;100774.0;;;13.6;100.0
64023;BME280;50264;52.088;5.296;2023-05-10T00:30:42;100776.0;;;13.56;100.0
64023;BME280;50264;52.088;5.296;2023-05-10T00:32:18;100777.0;;;13.56;100.0
64023;BME280;50264;52.088;5.296;2023-05-10T00:35:32;100778.0;;;13.54;100.0
64023;BME280;50264;52.088;5.296;2023-05-10T00:37:08;100776.0;;;13.63;100.0
64023;BME280;50264;52.088;5.296;2023-05-10T00:38:44;100776.0;;;13.62;100.0
64023;BME280;50264;52.088;5.296;2023-05-10T00:41:56;100780.0;;;13.57;100.0
64023;BME280;50264;52.088;5.296;2023-05-10T00:43:32;100782.0;;;13.62;100.0
64023;BME280;50264;52.088;5.296;2023-05-10T00:45:08;100778.0;;;13.6;100.0
64023;BME280;50264;52.088;5.296;2023-05-10T00:48:21;100774.0;;;13.71;100.0
64023;BME280;50264;52.088;5.296;2023-05-10T00:49:58;100774.0;;;13.7;100.0
64023;BME280;50264;52.088;5.296;2023-05-10T00:51:34;100777.0;;;13.73;100.0
64023;BME280;50264;52.088;5.296;2023-05-10T00:54:46;100776.0;;;13.79;100.0
64023;BME280;50264;52.088;5.296;2023-05-10T00:56:22;100773.0;;;13.94;100.0
64023;BME280;50264;52.088;5.296;2023-05-10T00:57:58;100780.0;;;13.93;100.0
64023;BME280;50264;52.088;5.296;2023-05-10T00:59:35;100785.0;;;13.94;100.0
64023;BME280;50264;52.088;5.296;2023-05-10T01:04:25;100785.0;;;14.0;100.0
64023;BME280;50264;52.088;5.296;2023-05-10T01:06:01;100780.0;;;14.0;100.0
64023;BME280;50264;52.088;5.296;2023-05-10T01:09:13;100778.0;;;14.04;100.0
64023;BME280;50264;52.088;5.296;2023-05-10T01:10:49;100778.0;;;13.89;100.0
64023;BME280;50264;52.088;5.296;2023-05-10T01:12:26;100778.0;;;14.03;100.0
64023;BME280;50264;52.088;5.296;2023-05-10T01:15:39;100777.0;;;14.06;100.0
64023;BME280;50264;52.088;5.296;2023-05-10T01:17:16;100780.0;;;14.08;100.0
64023;BME280;50264;52.088;5.296;2023-05-10T01:18:53;100780.0;;;14.04;100.0
64023;BME280;50264;52.088;5.296;2023-05-10T01:20:39;100780.0;;;14.03;100.0
64023;BME280;50264;52.088;5.296;2023-05-10T01:24:53;100777.0;;;14.12;100.0
64023;BME280;50264;52.088;5.296;2023-05-10T01:28:16;100778.0;;;14.11;100.0
64023;BME280;50264;52.088;5.296;2023-05-10T01:30:11;100780.0;;;14.04;100.0
64023;BME280;50264;52.088;5.296;2023-05-10T01:32:11;100781.0;;;14.07;100.0
64023;BME280;50264;52.088;5.296;2023-05-10T01:33:55;100783.0;;;14.15;100.0
64023;BME280;50264;52.088;5.296;2023-05-10T01:35:37;100782.0;;;14.12;100.0
64023;BME280;50264;52.088;5.296;2023-05-10T01:37:21;100777.0;;;14.15;100.0
64023;BME280;50264;52.088;5.296;2023-05-10T01:40:53;100780.0;;;14.19;100.0
64023;BME280;50264;52.088;5.296;2023-05-10T01:42:40;100778.0;;;14.16;100.0
64023;BME280;50264;52.088;5.296;2023-05-10T01:44:28;100781.0;;;14.23;100.0
64023;BME280;50264;52.088;5.296;2023-05-10T01:46:16;100780.0;;;14.18;100.0
64023;BME280;50264;52.088;5.296;2023-05-10T01:47:58;100782.0;;;14.13;100.0
64023;BME280;50264;52.088;5.296;2023-05-10T01:51:22;100785.0;;;14.11;100.0
64023;BME280;50264;52.088;5.296;2023-05-10T01:53:01;100787.0;;;14.13;100.0
64023;BME280;50264;52.088;5.296;2023-05-10T01:54:38;100790.0;;;14.1;100.0
64023;BME280;50264;52.088;5.296;2023-05-10T01:56:20;100787.0;;;14.12;100.0
64023;BME280;50264;52.088;5.296;2023-05-10T01:59:43;100788.0;;;14.02;100.0
64023;BME280;50264;52.088;5.296;2023-05-10T02:01:21;100786.0;;;14.07;100.0
64023;BME280;50264;52.088;5.296;2023-05-10T02:03:00;100786.0;;;14.03;100.0
64023;BME280;50264;52.088;5.296;2023-05-10T02:04:39;100790.0;;;13.97;100.0
64023;BME280;50264;52.088;5.296;2023-05-10T02:07:58;100789.0;;;13.97;100.0
64023;BME280;50264;52.088;5.296;2023-05-10T02:09:36;100791.0;;;13.91;100.0
64023;BME280;50264;52.088;5.296;2023-05-10T02:11:15;100790.0;;;13.97;100.0
64023;BME280;50264;52.088;5.296;2023-05-10T02:12:53;100793.0;;;13.95;100.0
64023;BME280;50264;52.088;5.296;2023-05-10T02:16:11;100792.0;;;13.82;100.0
64023;BME280;50264;52.088;5.296;2023-05-10T02:17:49;100794.0;;;13.87;100.0
64023;BME280;50264;52.088;5.296;2023-05-10T02:19:30;100796.0;;;13.98;100.0
64023;BME280;50264;52.088;5.296;2023-05-10T02:21:08;100798.0;;;13.8;100.0
64023;BME280;50264;52.088;5.296;2023-05-10T02:24:25;100803.0;;;13.68;100.0
64023;BME280;50264;52.088;5.296;2023-05-10T02:26:02;100808.0;;;13.6;100.0
64023;BME280;50264;52.088;5.296;2023-05-10T02:27:41;100814.0;;;13.7;100.0
64023;BME280;50264;52.088;5.296;2023-05-10T02:30:55;100810.0;;;13.62;100.0
64023;BME280;50264;52.088;5.296;2023-05-10T02:32:33;100814.0;;;13.6;100.0
64023;BME280;50264;52.088;5.296;2023-05-10T02:34:10;100816.0;;;13.68;100.0
64023;BME280;50264;52.088;5.296;2023-05-10T02:35:50;100817.0;;;13.68;100.0
64023;BME280;50264;52.088;5.296;2023-05-10T02:39:04;100816.0;;;13.7;100.0
64023;BME280;50264;52.088;5.296;2023-05-10T02:40:42;100819.0;;;13.76;100.0
64023;BME280;50264;52.088;5.296;2023-05-10T02:42:25;100823.0;;;13.76;100.0
64023;BME280;50264;52.088;5.296;2023-05-10T02:45:47;100825.0;;;13.6;100.0
64023;BME280;50264;52.088;5.296;2023-05-10T02:47:23;100821.0;;;13.49;100.0
64023;BME280;50264;52.088;5.296;2023-05-10T02:49:00;100828.0;;;13.49;100.0
64023;BME280;50264;52.088;5.296;2023-05-10T02:50:38;100824.0;;;13.59;100.0
64023;BME280;50264;52.088;5.296;2023-05-10T02:54:01;100827.0;;;13.56;100.0
64023;BME280;50264;52.088;5.296;2023-05-10T02:55:59;100826.0;;;13.53;100.0
64023;BME280;50264;52.088;5.296;2023-05-10T02:57:40;100824.0;;;13.39;100.0
64023;BME280;50264;52.088;5.296;2023-05-10T02:59:17;100825.0;;;13.44;100.0
64023;BME280;50264;52.088;5.296;2023-05-10T03:00:53;100826.0;;;13.46;100.0
64023;BME280;50264;52.088;5.296;2023-05-10T03:04:06;100827.0;;;13.53;100.0
64023;BME280;50264;52.088;5.296;2023-05-10T03:05:42;100827.0;;;13.48;100.0
64023;BME280;50264;52.088;5.296;2023-05-10T03:07:19;100834.0;;;13.55;100.0
64023;BME280;50264;52.088;5.296;2023-05-10T03:10:32;100833.0;;;13.58;100.0
64023;BME280;50264;52.088;5.296;2023-05-10T03:12:20;100834.0;;;13.57;100.0
64023;BME280;50264;52.088;5.296;2023-05-10T03:14:12;100826.0;;;13.51;100.0
64023;BME280;50264;52.088;5.296;2023-05-10T03:15:57;100830.0;;;13.47;100.0
64023;BME280;50264;52.088;5.296;2023-05-10T03:17:43;100826.0;;;13.5;100.0
64023;BME280;50264;52.088;5.296;2023-05-10T03:21:07;100825.0;;;13.56;100.0
64023;BME280;50264;52.088;5.296;2023-05-10T03:22:49;100830.0;;;13.58;100.0
64023;BME280;50264;52.088;5.296;2023-05-10T03:24:27;100834.0;;;13.6;100.0
64023;BME280;50264;52.088;5.296;2023-05-10T03:26:05;100836.0;;;13.62;100.0
64023;BME280;50264;52.088;5.296;2023-05-10T03:29:21;100841.0;;;13.59;100.0
64023;BME280;50264;52.088;5.296;2023-05-10T03:30:59;100840.0;;;13.56;100.0
64023;BME280;50264;52.088;5.296;2023-05-10T03:32:35;100839.0;;;13.64;100.0
64023;BME280;50264;52.088;5.296;2023-05-10T03:35:47;100841.0;;;13.57;100.0
64023;BME280;50264;52.088;5.296;2023-05-10T03:37:23;100835.0;;;13.61;100.0
64023;BME280;50264;52.088;5.296;2023-05-10T03:38:59;100836.0;;;13.7;100.0
64023;BME280;50264;52.088;5.296;2023-05-10T03:40:35;100835.0;;;13.69;100.0
64023;BME280;50264;52.088;5.296;2023-05-10T03:43:48;100833.0;;;13.66;100.0
64023;BME280;50264;52.088;5.296;2023-05-10T03:45:24;100832.0;;;13.47;100.0
64023;BME280;50264;52.088;5.296;2023-05-10T03:47:00;100834.0;;;13.54;100.0
64023;BME280;50264;52.088;5.296;2023-05-10T03:50:13;100837.0;;;13.57;100.0
64023;BME280;50264;52.088;5.296;2023-05-10T03:51:49;100837.0;;;13.55;100.0
64023;BME280;50264;52.088;5.296;2023-05-10T03:53:26;100837.0;;;13.63;100.0
64023;BME280;50264;52.088;5.296;2023-05-10T03:56:38;100834.0;;;13.64;100.0
64023;BME280;50264;52.088;5.296;2023-05-10T03:58:14;100835.0;;;13.64;100.0
64023;BME280;50264;52.088;5.296;2023-05-10T03:59:51;100840.0;;;13.68;100.0
64023;BME280;50264;52.088;5.296;2023-05-10T04:03:03;100843.0;;;13.66;100.0
64023;BME280;50264;52.088;5.296;2023-05-10T04:04:39;100839.0;;;13.61;100.0
64023;BME280;50264;52.088;5.296;2023-05-10T04:06:15;100839.0;;;13.66;100.0
64023;BME280;50264;52.088;5.296;2023-05-10T04:13:14;100835.0;;;13.5;100.0
64023;BME280;50264;52.088;5.296;2023-05-10T04:14:49;100840.0;;;13.53;100.0
64023;BME280;50264;52.088;5.296;2023-05-10T04:16:25;100843.0;;;13.59;100.0
64023;BME280;50264;52.088;5.296;2023-05-10T04:19:38;100839.0;;;13.61;100.0
64023;BME280;50264;52.088;5.296;2023-05-10T04:21:14;100841.0;;;13.59;100.0
64023;BME280;50264;52.088;5.296;2023-05-10T04:22:50;100841.0;;;13.57;100.0
64023;BME280;50264;52.088;5.296;2023-05-10T04:26:02;100842.0;;;13.69;100.0
64023;BME280;50264;52.088;5.296;2023-05-10T04:27:38;100846.0;;;13.66;100.0
64023;BME280;50264;52.088;5.296;2023-05-10T04:29:14;100845.0;;;13.6;100.0
64023;BME280;50264;52.088;5.296;2023-05-10T04:30:50;100846.0;;;13.63;100.0
64023;BME280;50264;52.088;5.296;2023-05-10T04:34:03;100847.0;;;13.64;100.0
64023;BME280;50264;52.088;5.296;2023-05-10T04:35:39;100845.0;;;13.66;100.0
64023;BME280;50264;52.088;5.296;2023-05-10T04:37:15;100846.0;;;13.71;100.0
64023;BME280;50264;52.088;5.296;2023-05-10T04:40:27;100843.0;;;13.72;100.0
64023;BME280;50264;52.088;5.296;2023-05-10T04:42:04;100842.0;;;13.79;100.0
64023;BME280;50264;52.088;5.296;2023-05-10T04:43:40;100839.0;;;13.78;100.0
64023;BME280;50264;52.088;5.296;2023-05-10T04:46:52;100843.0;;;13.76;100.0
64023;BME280;50264;52.088;5.296;2023-05-10T04:48:28;100849.0;;;13.75;100.0
64023;BME280;50264;52.088;5.296;2023-05-10T04:50:05;100849.0;;;13.77;100.0
64023;BME280;50264;52.088;5.296;2023-05-10T04:51:42;100852.0;;;13.81;100.0
64023;BME280;50264;52.088;5.296;2023-05-10T04:54:55;100852.0;;;13.88;100.0
64023;BME280;50264;52.088;5.296;2023-05-10T04:56:31;100855.0;;;13.84;100.0
64023;BME280;50264;52.088;5.296;2023-05-10T04:58:07;100856.0;;;13.77;100.0
64023;BME280;50264;52.088;5.296;2023-05-10T05:01:19;100853.0;;;13.79;100.0
64023;BME280;50264;52.088;5.296;2023-05-10T05:02:55;100859.0;;;13.67;100.0
64023;BME280;50264;52.088;5.296;2023-05-10T05:04:31;100855.0;;;13.71;100.0
64023;BME280;50264;52.088;5.296;2023-05-10T05:07:44;100861.0;;;13.83;100.0
64023;BME280;50264;52.088;5.296;2023-05-10T05:09:20;100857.0;;;13.86;100.0
64023;BME280;50264;52.088;5.296;2023-05-10T05:10:56;100862.0;;;13.82;100.0
64023;BME280;50264;52.088;5.296;2023-05-10T05:14:08;100865.0;;;13.88;100.0
64023;BME280;50264;52.088;5.296;2023-05-10T05:15:44;100864.0;;;13.79;100.0
64023;BME280;50264;52.088;5.296;2023-05-10T05:17:21;100872.0;;;13.88;100.0
64023;BME280;50264;52.088;5.296;2023-05-10T05:18:57;100875.0;;;13.81;100.0
64023;BME280;50264;52.088;5.296;2023-05-10T05:22:16;100875.0;;;13.88;100.0
64023;BME280;50264;52.088;5.296;2023-05-10T05:23:54;100872.0;;;13.91;100.0
64023;BME280;50264;52.088;5.296;2023-05-10T05:25:31;100876.0;;;13.94;100.0
64023;BME280;50264;52.088;5.296;2023-05-10T05:28:42;100881.0;;;13.91;100.0
64023;BME280;50264;52.088;5.296;2023-05-10T05:30:18;100881.0;;;13.85;100.0
64023;BME280;50264;52.088;5.296;2023-05-10T05:31:54;100884.0;;;13.82;100.0
64023;BME280;50264;52.088;5.296;2023-05-10T05:35:09;100883.0;;;13.86;100.0
64023;BME280;50264;52.088;5.296;2023-05-10T05:36:45;100884.0;;;13.77;100.0
64023;BME280;50264;52.088;5.296;2023-05-10T05:38:22;100886.0;;;13.88;100.0
64023;BME280;50264;52.088;5.296;2023-05-10T05:39:59;100886.0;;;13.87;100.0
64023;BME280;50264;52.088;5.296;2023-05-10T05:43:15;100892.0;;;13.97;100.0
64023;BME280;50264;52.088;5.296;2023-05-10T05:44:53;100895.0;;;14.0;100.0
64023;BME280;50264;52.088;5.296;2023-05-10T05:46:31;100899.0;;;14.04;100.0
64023;BME280;50264;52.088;5.296;2023-05-10T05:49:46;100905.0;;;14.01;100.0
64023;BME280;50264;52.088;5.296;2023-05-10T05:51:24;100905.0;;;13.97;100.0
64023;BME280;50264;52.088;5.296;2023-05-10T05:53:01;100905.0;;;13.96;100.0
64023;BME280;50264;52.088;5.296;2023-05-10T05:54:37;100905.0;;;14.0;100.0
64023;BME280;50264;52.088;5.296;2023-05-10T05:57:52;100907.0;;;13.93;100.0
64023;BME280;50264;52.088;5.296;2023-05-10T05:59:30;100906.0;;;13.96;100.0
64023;BME280;50264;52.088;5.296;2023-05-10T06:01:07;100913.0;;;13.91;100.0
64023;BME280;50264;52.088;5.296;2023-05-10T06:04:23;100915.0;;;14.04;100.0
64023;BME280;50264;52.088;5.296;2023-05-10T06:06:01;100913.0;;;13.97;100.0
64023;BME280;50264;52.088;5.296;2023-05-10T06:07:39;100912.0;;;13.91;100.0
64023;BME280;50264;52.088;5.296;2023-05-10T06:09:16;100915.0;;;13.96;100.0
64023;BME280;50264;52.088;5.296;2023-05-10T06:12:30;100924.0;;;13.95;100.0
64023;BME280;50264;52.088;5.296;2023-05-10T06:19:01;100928.0;;;13.93;100.0
64023;BME280;50264;52.088;5.296;2023-05-10T06:20:38;100930.0;;;14.02;99.84
64023;BME280;50264;52.088;5.296;2023-05-10T06:22:18;100931.0;;;13.9;100.0
64023;BME280;50264;52.088;5.296;2023-05-10T06:23:55;100930.0;;;13.85;99.99
64023;BME280;50264;52.088;5.296;2023-05-10T06:27:11;100930.0;;;13.79;100.0
64023;BME280;50264;52.088;5.296;2023-05-10T06:28:49;100937.0;;;13.79;100.0
64023;BME280;50264;52.088;5.296;2023-05-10T06:30:26;100933.0;;;13.82;100.0
64023;BME280;50264;52.088;5.296;2023-05-10T06:33:41;100935.0;;;13.84;100.0
64023;BME280;50264;52.088;5.296;2023-05-10T06:36:58;100935.0;;;13.97;100.0
64023;BME280;50264;52.088;5.296;2023-05-10T06:38:35;100937.0;;;13.96;100.0
64023;BME280;50264;52.088;5.296;2023-05-10T06:41:51;100944.0;;;13.99;100.0
64023;BME280;50264;52.088;5.296;2023-05-10T06:43:28;100937.0;;;14.0;99.78
64023;BME280;50264;52.088;5.296;2023-05-10T06:45:07;100943.0;;;13.99;100.0
64023;BME280;50264;52.088;5.296;2023-05-10T06:48:21;100945.0;;;14.06;100.0
64023;BME280;50264;52.088;5.296;2023-05-10T06:49:58;100940.0;;;14.1;100.0
64023;BME280;50264;52.088;5.296;2023-05-10T06:51:35;100944.0;;;14.08;100.0
64023;BME280;50264;52.088;5.296;2023-05-10T06:53:11;100952.0;;;14.05;100.0
64023;BME280;50264;52.088;5.296;2023-05-10T06:56:26;100955.0;;;14.04;98.84
64023;BME280;50264;52.088;5.296;2023-05-10T06:58:03;100955.0;;;14.11;98.87
64023;BME280;50264;52.088;5.296;2023-05-10T06:59:40;100959.0;;;14.04;99.04
64023;BME280;50264;52.088;5.296;2023-05-10T07:02:56;100958.0;;;14.09;99.7
64023;BME280;50264;52.088;5.296;2023-05-10T07:04:32;100959.0;;;14.17;98.57
64023;BME280;50264;52.088;5.296;2023-05-10T07:06:08;100959.0;;;14.03;98.94
64023;BME280;50264;52.088;5.296;2023-05-10T07:07:45;100963.0;;;14.06;99.19
64023;BME280;50264;52.088;5.296;2023-05-10T07:11:01;100962.0;;;14.09;98.99
64023;BME280;50264;52.088;5.296;2023-05-10T07:12:40;100963.0;;;14.13;98.72
64023;BME280;50264;52.088;5.296;2023-05-10T07:14:18;100963.0;;;14.25;96.76
64023;BME280;50264;52.088;5.296;2023-05-10T07:19:11;100964.0;;;14.2;98.42
64023;BME280;50264;52.088;5.296;2023-05-10T07:20:48;100969.0;;;14.22;97.96
64023;BME280;50264;52.088;5.296;2023-05-10T07:22:26;100971.0;;;14.39;95.8
64023;BME280;50264;52.088;5.296;2023-05-10T07:25:41;100974.0;;;14.34;96.09
64023;BME280;50264;52.088;5.296;2023-05-10T07:27:19;100978.0;;;14.31;97.37
64023;BME280;50264;52.088;5.296;2023-05-10T07:28:56;100978.0;;;14.47;97.05
64023;BME280;50264;52.088;5.296;2023-05-10T07:32:11;100980.0;;;14.32;97.03
64023;BME280;50264;52.088;5.296;2023-05-10T07:33:48;100985.0;;;14.34;98.32
64023;BME280;50264;52.088;5.296;2023-05-10T07:35:25;100985.0;;;14.4;97.45
64023;BME280;50264;52.088;5.296;2023-05-10T07:37:02;100987.0;;;14.45;97.47
64023;BME280;50264;52.088;5.296;2023-05-10T07:40:18;100992.0;;;14.46;98.34
64023;BME280;50264;52.088;5.296;2023-05-10T07:41:55;100994.0;;;14.44;98.32
64023;BME280;50264;52.088;5.296;2023-05-10T07:43:33;100995.0;;;14.36;96.54
64023;BME280;50264;52.088;5.296;2023-05-10T07:46:48;100996.0;;;14.37;97.09
64023;BME280;50264;52.088;5.296;2023-05-10T07:48:26;100990.0;;;14.4;96.66
64023;BME280;50264;52.088;5.296;2023-05-10T07:50:03;100996.0;;;14.42;96.95
64023;BME280;50264;52.088;5.296;2023-05-10T07:51:41;100994.0;;;14.53;97.63
64023;BME280;50264;52.088;5.296;2023-05-10T07:54:55;100996.0;;;14.45;96.09
64023;BME280;50264;52.088;5.296;2023-05-10T07:56:32;100995.0;;;14.47;97.35
64023;BME280;50264;52.088;5.296;2023-05-10T07:58:09;100998.0;;;14.47;96.53
64023;BME280;50264;52.088;5.296;2023-05-10T08:01:24;100997.0;;;14.49;97.54
64023;BME280;50264;52.088;5.296;2023-05-10T08:03:03;100999.0;;;14.51;97.96
64023;BME280;50264;52.088;5.296;2023-05-10T08:04:39;101003.0;;;14.49;97.36
64023;BME280;50264;52.088;5.296;2023-05-10T08:06:17;101005.0;;;14.56;95.25
64023;BME280;50264;52.088;5.296;2023-05-10T08:09:33;101007.0;;;14.62;95.93
64023;BME280;50264;52.088;5.296;2023-05-10T08:11:11;101009.0;;;14.65;97.43
64023;BME280;50264;52.088;5.296;2023-05-10T08:12:48;101013.0;;;14.59;96.01
64023;BME280;50264;52.088;5.296;2023-05-10T08:16:04;101018.0;;;14.71;94.25
64023;BME280;50264;52.088;5.296;2023-05-10T08:17:42;101021.0;;;14.86;93.04
64023;BME280;50264;52.088;5.296;2023-05-10T08:19:20;101023.0;;;14.86;93.34
64023;BME280;50264;52.088;5.296;2023-05-10T08:20:58;101025.0;;;14.85;95.9
64023;BME280;50264;52.088;5.296;2023-05-10T08:24:13;101026.0;;;14.74;93.98
64023;BME280;50264;52.088;5.296;2023-05-10T08:25:50;101025.0;;;14.79;97.67
64023;BME280;50264;52.088;5.296;2023-05-10T08:27:26;101027.0;;;14.86;94.13
64023;BME280;50264;52.088;5.296;2023-05-10T08:30:40;101031.0;;;14.9;94.85
64023;BME280;50264;52.088;5.296;2023-05-10T08:32:18;101036.0;;;14.91;96.94
64023;BME280;50264;52.088;5.296;2023-05-10T08:33:55;101036.0;;;14.98;94.75
64023;BME280;50264;52.088;5.296;2023-05-10T08:35:33;101044.0;;;14.91;94.51
64023;BME280;50264;52.088;5.296;2023-05-10T08:38:50;101047.0;;;14.81;95.56
64023;BME280;50264;52.088;5.296;2023-05-10T08:40:29;101050.0;;;14.93;93.15
64023;BME280;50264;52.088;5.296;2023-05-10T08:42:07;101050.0;;;15.03;93.92
64023;BME280;50264;52.088;5.296;2023-05-10T08:45:28;101055.0;;;14.94;93.73
64023;BME280;50264;52.088;5.296;2023-05-10T08:47:08;101052.0;;;14.97;94.96
64023;BME280;50264;52.088;5.296;2023-05-10T08:48:50;101055.0;;;15.03;93.73
64023;BME280;50264;52.088;5.296;2023-05-10T08:50:27;101061.0;;;14.96;91.26
64023;BME280;50264;52.088;5.296;2023-05-10T08:53:44;101062.0;;;14.92;92.51
64023;BME280;50264;52.088;5.296;2023-05-10T08:55:23;101067.0;;;15.02;91.85
64023;BME280;50264;52.088;5.296;2023-05-10T08:57:01;101062.0;;;14.88;93.37
64023;BME280;50264;52.088;5.296;2023-05-10T08:58:38;101065.0;;;14.9;94.72
64023;BME280;50264;52.088;5.296;2023-05-10T09:01:57;101064.0;;;14.76;93.87
64023;BME280;50264;52.088;5.296;2023-05-10T09:03:34;101068.0;;;14.8;93.59
64023;BME280;50264;52.088;5.296;2023-05-10T09:05:12;101068.0;;;14.67;92.97
64023;BME280;50264;52.088;5.296;2023-05-10T09:08:27;101066.0;;;14.78;93.48
64023;BME280;50264;52.088;5.296;2023-05-10T09:10:05;101070.0;;;14.66;94.23
64023;BME280;50264;52.088;5.296;2023-05-10T09:11:44;101070.0;;;14.71;94.46
64023;BME280;50264;52.088;5.296;2023-05-10T09:13:22;101070.0;;;14.7;93.66
64023;BME280;50264;52.088;5.296;2023-05-10T09:16:40;101065.0;;;14.8;94.62
64023;BME280;50264;52.088;5.296;2023-05-10T09:18:18;101074.0;;;14.76;92.74
64023;BME280;50264;52.088;5.296;2023-05-10T09:19:58;101076.0;;;14.72;93.25
64023;BME280;50264;52.088;5.296;2023-05-10T09:21:36;101075.0;;;14.75;95.0
64023;BME280;50264;52.088;5.296;2023-05-10T09:25:03;101071.0;;;14.8;94.6
64023;BME280;50264;52.088;5.296;2023-05-10T09:26:45;101074.0;;;14.73;92.7
64023;BME280;50264;52.088;5.296;2023-05-10T09:28:24;101073.0;;;14.9;94.2
64023;BME280;50264;52.088;5.296;2023-05-10T09:30:02;101078.0;;;14.89;92.6
64023;BME280;50264;52.088;5.296;2023-05-10T09:33:23;101078.0;;;14.97;92.79
64023;BME280;50264;52.088;5.296;2023-05-10T09:35:06;101081.0;;;14.92;92.21
64023;BME280;50264;52.088;5.296;2023-05-10T09:36:52;101081.0;;;15.05;91.71
64023;BME280;50264;52.088;5.296;2023-05-10T09:38:44;101087.0;;;15.07;93.47
64023;BME280;50264;52.088;5.296;2023-05-10T09:42:04;101092.0;;;15.07;93.12
64023;BME280;50264;52.088;5.296;2023-05-10T09:43:42;101095.0;;;15.15;93.63
64023;BME280;50264;52.088;5.296;2023-05-10T09:45:19;101094.0;;;15.06;91.97
64023;BME280;50264;52.088;5.296;2023-05-10T09:46:57;101094.0;;;15.16;93.07
64023;BME280;50264;52.088;5.296;2023-05-10T09:50:19;101099.0;;;15.19;91.74
64023;BME280;50264;52.088;5.296;2023-05-10T09:52:00;101101.0;;;15.32;92.23
64023;BME280;50264;52.088;5.296;2023-05-10T09:53:38;101102.0;;;15.23;89.16
64023;BME280;50264;52.088;5.296;2023-05-10T09:55:18;101111.0;;;15.38;90.48
64023;BME280;50264;52.088;5.296;2023-05-10T09:58:35;101109.0;;;15.49;89.09
64023;BME280;50264;52.088;5.296;2023-05-10T10:00:17;101116.0;;;15.52;89.67
64023;BME280;50264;52.088;5.296;2023-05-10T10:01:57;101110.0;;;15.59;89.3
64023;BME280;50264;52.088;5.296;2023-05-10T10:03:41;101108.0;;;15.65;86.18
64023;BME280;50264;52.088;5.296;2023-05-10T10:06:59;101110.0;;;15.6;87.48
64023;BME280;50264;52.088;5.296;2023-05-10T10:08:37;101119.0;;;15.66;87.82
64023;BME280;50264;52.088;5.296;2023-05-10T10:10:15;101108.0;;;15.78;89.54
64023;BME280;50264;52.088;5.296;2023-05-10T10:11:53;101111.0;;;15.78;90.72
64023;BME280;50264;52.088;5.296;2023-05-10T10:15:10;101111.0;;;15.8;89.12
64023;BME280;50264;52.088;5.296;2023-05-10T10:16:47;101117.0;;;15.78;88.33
64023;BME280;50264;52.088;5.296;2023-05-10T10:18:27;101116.0;;;15.64;86.72
64023;BME280;50264;52.088;5.296;2023-05-10T10:21:43;101118.0;;;15.75;86.73
64023;BME280;50264;52.088;5.296;2023-05-10T10:23:20;101115.0;;;15.74;88.54
64023;BME280;50264;52.088;5.296;2023-05-10T10:24:58;101121.0;;;15.67;89.32
64023;BME280;50264;52.088;5.296;2023-05-10T10:26:37;101112.0;;;15.66;89.3
64023;BME280;50264;52.088;5.296;2023-05-10T10:30:10;101119.0;;;15.62;87.17
64023;BME280;50264;52.088;5.296;2023-05-10T10:32:00;101119.0;;;15.52;89.79
64023;BME280;50264;52.088;5.296;2023-05-10T10:33:53;101118.0;;;15.66;87.62
64023;BME280;50264;52.088;5.296;2023-05-10T10:35:37;101115.0;;;15.8;87.18
64023;BME280;50264;52.088;5.296;2023-05-10T10:37:14;101121.0;;;15.82;87.68
64023;BME280;50264;52.088;5.296;2023-05-10T10:40:34;101123.0;;;15.81;86.85
64023;BME280;50264;52.088;5.296;2023-05-10T10:42:11;101126.0;;;15.75;86.03
64023;BME280;50264;52.088;5.296;2023-05-10T10:43:48;101124.0;;;15.84;85.0
64023;BME280;50264;52.088;5.296;2023-05-10T10:45:26;101127.0;;;15.87;86.04
64023;BME280;50264;52.088;5.296;2023-05-10T10:48:48;101123.0;;;15.91;88.52
64023;BME280;50264;52.088;5.296;2023-05-10T10:50:26;101127.0;;;15.78;84.19
64023;BME280;50264;52.088;5.296;2023-05-10T10:52:22;101128.0;;;15.87;88.95
64023;BME280;50264;52.088;5.296;2023-05-10T10:54:08;101125.0;;;15.85;90.51
64023;BME280;50264;52.088;5.296;2023-05-10T10:55:46;101121.0;;;15.7;88.87
64023;BME280;50264;52.088;5.296;2023-05-10T10:59:03;101121.0;;;15.69;89.27
64023;BME280;50264;52.088;5.296;2023-05-10T11:00:40;101128.0;;;15.77;90.89
64023;BME280;50264;52.088;5.296;2023-05-10T11:02:49;101127.0;;;15.71;90.05
64023;BME280;50264;52.088;5.296;2023-05-10T11:04:26;101125.0;;;15.83;89.33
64023;BME280;50264;52.088;5.296;2023-05-10T11:07:51;101123.0;;;15.98;90.44
64023;BME280;50264;52.088;5.296;2023-05-10T11:09:26;101122.0;;;16.05;91.55
64023;BME280;50264;52.088;5.296;2023-05-10T11:11:05;101118.0;;;16.12;89.61
64023;BME280;50264;52.088;5.296;2023-05-10T11:12:51;101123.0;;;16.12;87.83
64023;BME280;50264;52.088;5.296;2023-05-10T11:16:13;101130.0;;;16.13;83.95
64023;BME280;50264;52.088;5.296;2023-05-10T11:17:50;101122.0;;;16.29;88.25
64023;BME280;50264;52.088;5.296;2023-05-10T11:19:27;101127.0;;;16.32;85.67
64023;BME280;50264;52.088;5.296;2023-05-10T11:21:03;101130.0;;;16.53;87.9